CheckWX is a tool to help pilots better visualize weather data.  It is not intended as a substitute for an official pre-flight weather briefing.

02:47:52 UTC

YPWR TAF
Woomera Airfield Airport
Woomera, Australia
TAF COR YPWR 012312Z 0123/0218 01005KT 9999 SCT010 FM020000 36006KT 9999 SCT025 FM020400 33008KT 9999 SCT045 FM021200 VRB05KT CAVOK

Apr-1@
23:00 UTC

Apr-1 @ 23:00 UTC

Apr-2@
00:00 UTC

Apr-2 @ 00:00 UTC

TAF COR YPWR 012312Z 0123/0218 01005KT 9999 SCT010

Expired

Wind
  • 010° at 5 KTS
Cloud Levels
  • Scattered at 1,000' AGL

Apr-2@
00:00 UTC

Apr-2 @ 00:00 UTC

Apr-2@
04:00 UTC

Apr-2 @ 04:00 UTC

FM020000 36006KT 9999 SCT025

From

From Standard forecast or significant change

Wind
  • 360° at 6 KTS
Cloud Levels
  • Scattered at 2,500' AGL

Apr-2@
04:00 UTC

Apr-2 @ 04:00 UTC

Apr-2@
12:00 UTC

Apr-2 @ 12:00 UTC

FM020400 33008KT 9999 SCT045

From

From Standard forecast or significant change

Wind
  • 330° at 8 KTS
Cloud Levels
  • Scattered at 4,500' AGL

Apr-2@
12:00 UTC

Apr-2 @ 12:00 UTC

Apr-2@
18:00 UTC

Apr-2 @ 18:00 UTC

FM021200 VRB05KT CAVOK

From

From Standard forecast or significant change

Wind
  • Variable at 5 KTS
Conditions
No significant weather
Cloud Levels
  • No significant clouds